createdAt,value
2022-10-06T00:01:10.631Z,59.22
2022-10-06T00:03:38.290Z,67.25
2022-10-06T00:06:05.855Z,57.15
2022-10-06T00:08:34.715Z,56.05
2022-10-06T00:11:01.623Z,57.15
2022-10-06T00:13:28.629Z,63.45
2022-10-06T00:15:55.512Z,60.03
2022-10-06T00:18:22.239Z,61.97
2022-10-06T00:20:59.902Z,58.35
2022-10-06T00:23:27.509Z,61.50
2022-10-06T00:25:54.486Z,64.35
2022-10-06T00:28:21.628Z,53.00
2022-10-06T00:30:48.270Z,54.80
2022-10-06T00:33:17.328Z,56.15
2022-10-06T00:35:44.343Z,57.50
2022-10-06T00:38:13.026Z,53.90
2022-10-06T00:40:48.439Z,63.22
2022-10-06T00:43:36.730Z,60.03
2022-10-06T00:46:03.249Z,55.28
2022-10-06T00:48:31.222Z,55.67
2022-10-06T00:50:59.209Z,57.38
2022-10-06T00:53:30.330Z,55.65
2022-10-06T00:58:24.096Z,49.25
2022-10-06T01:00:55.599Z,52.40
2022-10-06T01:03:29.729Z,55.70
2022-10-06T01:05:57.980Z,53.28
2022-10-06T01:08:25.948Z,58.05
2022-10-06T01:10:52.660Z,47.88
2022-10-06T01:13:19.387Z,51.45
2022-10-06T01:16:06.216Z,48.13
2022-10-06T01:18:33.852Z,54.05
2022-10-06T01:21:29.334Z,57.67
2022-10-06T01:23:57.140Z,53.17
2022-10-06T01:26:24.897Z,59.15
2022-10-06T01:28:51.661Z,51.45
2022-10-06T01:31:18.479Z,50.33
2022-10-06T01:33:44.957Z,51.63
2022-10-06T01:36:11.352Z,51.55
2022-10-06T01:38:37.856Z,49.88
2022-10-06T01:41:04.708Z,50.47
2022-10-06T01:43:31.129Z,51.58
2022-10-06T01:45:58.380Z,47.40
2022-10-06T01:48:26.694Z,48.88
2022-10-06T01:50:54.641Z,46.35
2022-10-06T01:53:21.520Z,49.75
2022-10-06T01:55:48.497Z,48.65
2022-10-06T01:58:15.077Z,46.35
2022-10-06T02:00:41.552Z,47.58
2022-10-06T02:03:08.453Z,49.95
2022-10-06T02:05:35.139Z,49.83
2022-10-06T02:08:02.712Z,50.92
2022-10-06T02:10:29.243Z,51.10
2022-10-06T02:12:55.717Z,58.45
2022-10-06T02:15:22.252Z,47.53
2022-10-06T02:17:48.815Z,50.05
2022-10-06T02:20:15.642Z,54.83
2022-10-06T02:22:43.651Z,48.65
2022-10-06T02:25:11.839Z,52.67
2022-10-06T02:27:39.584Z,50.78
2022-10-06T02:30:07.452Z,40.55
2022-10-06T02:32:36.817Z,47.88
2022-10-06T02:35:04.097Z,42.40
2022-10-06T02:37:30.952Z,39.47
2022-10-06T02:39:57.518Z,51.40
2022-10-06T02:42:24.090Z,58.17
2022-10-06T02:44:52.173Z,60.03
2022-10-06T02:47:19.454Z,48.38
2022-10-06T02:49:46.401Z,49.03
2022-10-06T02:52:13.023Z,54.63
2022-10-06T02:54:39.457Z,53.30
2022-10-06T02:57:05.913Z,41.80
2022-10-06T02:59:33.905Z,48.80
2022-10-06T03:02:00.455Z,53.28
2022-10-06T03:04:27.442Z,45.38
2022-10-06T03:06:53.978Z,54.55
2022-10-06T03:09:20.432Z,48.78
2022-10-06T03:11:47.156Z,45.03
2022-10-06T03:14:16.582Z,40.42
2022-10-06T03:16:45.746Z,38.22
2022-10-06T03:19:12.294Z,36.20
2022-10-06T03:21:43.781Z,35.45
2022-10-06T03:24:10.946Z,38.28
2022-10-06T03:26:40.781Z,40.20
2022-10-06T03:29:11.331Z,36.78
2022-10-06T03:31:39.162Z,40.60
2022-10-06T03:34:06.024Z,36.03
2022-10-06T03:36:33.902Z,29.98
2022-10-06T03:39:01.631Z,33.58
2022-10-06T03:41:30.401Z,28.00
2022-10-06T03:43:58.625Z,26.77
2022-10-06T03:46:30.071Z,35.75
2022-10-06T03:49:01.258Z,32.42
2022-10-06T03:53:58.961Z,30.42
2022-10-06T03:56:29.559Z,35.58
2022-10-06T03:58:59.652Z,42.58
2022-10-06T04:01:32.126Z,39.45
2022-10-06T04:04:00.445Z,43.58
2022-10-06T04:06:28.823Z,43.65
2022-10-06T04:08:55.884Z,36.03
2022-10-06T04:11:33.490Z,42.55
2022-10-06T04:14:02.752Z,43.83
2022-10-06T04:16:34.268Z,47.03
2022-10-06T04:19:03.716Z,43.33
2022-10-06T04:21:32.227Z,49.03
2022-10-06T04:24:00.327Z,41.35
2022-10-06T04:26:30.654Z,49.60
2022-10-06T04:28:57.478Z,44.77
2022-10-06T04:31:26.531Z,36.38
2022-10-06T04:33:55.285Z,37.47
2022-10-06T04:36:27.997Z,42.70
2022-10-06T04:38:58.175Z,41.95
2022-10-06T04:41:31.821Z,39.70
2022-10-06T04:43:58.736Z,43.05
2022-10-06T04:49:19.674Z,43.17
2022-10-06T04:51:48.885Z,37.28
2022-10-06T04:54:15.527Z,46.28
2022-10-06T04:56:41.909Z,31.92
2022-10-06T04:59:08.346Z,31.98
2022-10-06T05:01:36.724Z,32.15
2022-10-06T05:04:05.886Z,31.65
2022-10-06T05:06:41.575Z,31.70
2022-10-06T05:09:13.677Z,33.90
2022-10-06T05:11:40.482Z,33.20
2022-10-06T05:14:07.527Z,37.22
2022-10-06T05:16:36.869Z,36.50
2022-10-06T05:19:03.604Z,37.83
2022-10-06T05:21:32.163Z,36.72
2022-10-06T05:23:59.046Z,39.88
2022-10-06T05:26:28.539Z,44.38
2022-10-06T05:28:55.202Z,38.22
2022-10-06T05:31:27.783Z,36.80
2022-10-06T05:33:55.326Z,39.78
2022-10-06T05:36:27.933Z,34.10
2022-10-06T05:38:59.665Z,36.63
2022-10-06T05:41:37.644Z,35.42
2022-10-06T05:44:04.633Z,34.15
2022-10-06T05:46:36.182Z,33.70
2022-10-06T05:49:17.049Z,39.72
2022-10-06T05:51:43.740Z,30.55
2022-10-06T05:54:10.292Z,32.25
2022-10-06T05:56:38.138Z,31.83
2022-10-06T05:59:05.846Z,32.38
2022-10-06T06:01:33.172Z,33.13
2022-10-06T06:04:03.011Z,29.90
2022-10-06T06:06:48.795Z,34.83
2022-10-06T06:09:17.462Z,38.50
2022-10-06T06:11:46.850Z,37.25
2022-10-06T06:14:44.081Z,45.78
2022-10-06T06:17:11.473Z,47.35
2022-10-06T06:19:37.875Z,44.22
2022-10-06T06:22:04.268Z,49.20
2022-10-06T06:24:30.717Z,38.92
2022-10-06T06:26:57.209Z,43.35
2022-10-06T06:29:24.054Z,40.38
2022-10-06T06:31:51.045Z,41.08
2022-10-06T06:34:17.580Z,38.63
2022-10-06T06:36:46.944Z,34.90
2022-10-06T06:39:14.525Z,40.50
2022-10-06T06:41:46.023Z,42.78
2022-10-06T06:44:13.835Z,34.88
2022-10-06T06:46:43.253Z,39.03
2022-10-06T06:49:11.908Z,41.53
2022-10-06T06:51:40.835Z,41.33
2022-10-06T06:54:09.091Z,39.53
2022-10-06T06:56:36.140Z,39.70
2022-10-06T06:59:08.813Z,41.00
2022-10-06T07:01:35.315Z,37.33
2022-10-06T07:04:01.930Z,46.15
2022-10-06T07:06:30.435Z,48.15
2022-10-06T07:08:58.770Z,36.83
2022-10-06T07:11:32.334Z,37.65
2022-10-06T07:14:03.739Z,40.65
2022-10-06T07:16:50.031Z,50.50
2022-10-06T07:19:36.760Z,50.08
2022-10-06T07:22:34.825Z,49.97
2022-10-06T07:25:11.500Z,62.03
2022-10-06T07:27:42.383Z,70.95
2022-10-06T07:30:11.760Z,53.65
2022-10-06T07:32:38.298Z,57.40
2022-10-06T07:35:06.488Z,67.13
2022-10-06T07:37:35.110Z,65.07
2022-10-06T07:40:01.968Z,62.08
2022-10-06T07:42:28.503Z,68.72
2022-10-06T07:45:13.393Z,64.57
2022-10-06T07:47:39.924Z,65.50
2022-10-06T07:50:08.336Z,65.90
2022-10-06T07:52:39.082Z,62.22
2022-10-06T07:55:06.428Z,69.78
2022-10-06T07:57:35.432Z,67.55
2022-10-06T08:00:05.612Z,65.57
2022-10-06T08:02:35.521Z,71.63
2022-10-06T08:05:03.494Z,66.43
2022-10-06T08:07:29.889Z,64.70
2022-10-06T08:09:56.280Z,64.25
2022-10-06T08:12:37.359Z,67.88
2022-10-06T08:17:36.723Z,69.30
2022-10-06T08:20:08.914Z,67.63
2022-10-06T08:22:36.606Z,71.03
2022-10-06T08:25:07.288Z,64.90
2022-10-06T08:27:35.260Z,65.60
2022-10-06T08:30:02.563Z,63.90
2022-10-06T08:32:29.978Z,58.75
2022-10-06T08:34:57.016Z,62.97
2022-10-06T08:37:24.499Z,62.85
2022-10-06T08:39:51.492Z,59.55
2022-10-06T08:42:26.042Z,61.13
2022-10-06T08:45:15.289Z,60.47
2022-10-06T08:47:52.235Z,54.33
2022-10-06T08:50:21.269Z,53.25
2022-10-06T08:53:17.602Z,56.35
2022-10-06T08:55:57.320Z,58.08
2022-10-06T08:58:28.875Z,46.85
2022-10-06T09:01:00.885Z,47.75
2022-10-06T09:03:29.653Z,52.50
2022-10-06T09:06:07.416Z,55.63
2022-10-06T09:08:55.344Z,55.03
2022-10-06T09:11:43.395Z,52.85
2022-10-06T09:14:24.406Z,50.78
2022-10-06T09:16:58.136Z,51.17
2022-10-06T09:19:37.454Z,51.67
2022-10-06T09:24:57.216Z,48.63
2022-10-06T09:27:30.381Z,45.15
2022-10-06T09:29:57.110Z,54.47
2022-10-06T09:32:26.655Z,50.22
2022-10-06T09:34:55.944Z,53.95
2022-10-06T09:37:23.209Z,51.85
2022-10-06T09:39:51.676Z,52.38
2022-10-06T09:42:30.037Z,52.75
2022-10-06T09:45:29.023Z,55.53
2022-10-06T09:48:11.770Z,47.22
2022-10-06T09:50:38.267Z,52.17
2022-10-06T09:53:16.264Z,49.28
2022-10-06T09:55:46.599Z,47.60
2022-10-06T09:58:21.282Z,49.95
2022-10-06T10:00:53.664Z,45.38
2022-10-06T10:03:21.630Z,51.00
2022-10-06T10:05:54.826Z,52.35
2022-10-06T10:08:24.483Z,44.47
2022-10-06T10:11:30.258Z,48.50
2022-10-06T10:13:57.847Z,44.22
2022-10-06T10:16:26.414Z,50.95
2022-10-06T10:18:53.505Z,53.67
2022-10-06T10:21:25.800Z,47.10
2022-10-06T10:23:58.484Z,48.40
2022-10-06T10:26:32.469Z,49.65
2022-10-06T10:29:04.955Z,46.17
2022-10-06T10:31:50.178Z,45.85
2022-10-06T10:34:34.589Z,41.00
2022-10-06T10:37:05.738Z,40.05
2022-10-06T10:39:49.567Z,46.45
2022-10-06T10:42:31.075Z,45.30
2022-10-06T10:45:02.714Z,46.78
2022-10-06T10:47:37.806Z,50.97
2022-10-06T10:50:24.548Z,41.05
2022-10-06T10:52:54.628Z,41.00
2022-10-06T10:55:31.490Z,41.77
2022-10-06T10:58:05.886Z,42.25
2022-10-06T11:00:37.492Z,44.53
2022-10-06T11:03:04.065Z,44.35
2022-10-06T11:05:55.097Z,42.95
2022-10-06T11:11:41.409Z,39.60
2022-10-06T11:14:19.261Z,43.30
2022-10-06T11:17:03.678Z,45.28
2022-10-06T11:19:54.981Z,41.15
2022-10-06T11:22:31.980Z,42.63
2022-10-06T11:25:20.092Z,40.65
2022-10-06T11:28:14.591Z,42.47
2022-10-06T11:30:58.565Z,38.33
2022-10-06T11:33:52.695Z,42.97
2022-10-06T11:36:42.101Z,40.15
2022-10-06T11:39:20.841Z,35.88
2022-10-06T11:42:06.107Z,40.25
2022-10-06T11:44:46.417Z,44.47
2022-10-06T11:47:35.543Z,44.78
2022-10-06T11:50:12.404Z,42.28
2022-10-06T11:52:46.386Z,44.03
2022-10-06T11:55:16.529Z,41.28
2022-10-06T11:58:29.762Z,43.65
2022-10-06T12:00:56.288Z,41.92
2022-10-06T12:03:28.471Z,47.38
2022-10-06T12:05:56.517Z,40.35
2022-10-06T12:08:40.155Z,44.08
2022-10-06T12:11:38.200Z,41.33
2022-10-06T12:17:22.503Z,42.45
2022-10-06T12:20:16.765Z,43.15
2022-10-06T12:22:55.803Z,45.83
2022-10-06T12:25:32.035Z,41.45
2022-10-06T12:28:19.695Z,41.05
2022-10-06T12:31:17.965Z,41.20
2022-10-06T12:33:45.251Z,43.00
2022-10-06T12:36:19.161Z,42.08
2022-10-06T12:39:01.724Z,47.28
2022-10-06T12:41:59.214Z,38.58
2022-10-06T12:44:37.940Z,38.53
2022-10-06T12:47:12.939Z,40.50
2022-10-06T12:50:03.019Z,37.03
2022-10-06T12:52:35.492Z,42.90
2022-10-06T12:55:35.869Z,40.40
2022-10-06T12:58:02.463Z,47.40
2022-10-06T13:00:31.887Z,39.53
2022-10-06T13:03:01.013Z,42.50
2022-10-06T13:05:27.885Z,40.78
2022-10-06T13:07:55.856Z,44.28
2022-10-06T13:10:23.414Z,40.45
2022-10-06T13:12:52.102Z,40.50
2022-10-06T13:15:27.739Z,40.58
2022-10-06T13:17:56.108Z,41.25
2022-10-06T13:20:46.281Z,36.42
2022-10-06T13:23:37.150Z,41.37
2022-10-06T13:28:47.297Z,40.03
2022-10-06T13:31:29.259Z,37.40
2022-10-06T13:34:05.167Z,43.33
2022-10-06T13:36:38.538Z,37.78
2022-10-06T13:39:06.416Z,37.50
2022-10-06T13:41:41.461Z,35.30
2022-10-06T13:44:18.709Z,41.13
2022-10-06T13:47:01.679Z,38.50
2022-10-06T13:49:43.058Z,33.92
2022-10-06T13:52:48.860Z,39.70
2022-10-06T13:55:25.030Z,37.40
2022-10-06T13:58:09.241Z,34.65
2022-10-06T14:01:00.462Z,33.85
2022-10-06T14:06:16.883Z,35.83
2022-10-06T14:08:50.767Z,31.58
2022-10-06T14:11:24.550Z,37.17
2022-10-06T14:14:03.197Z,37.47
2022-10-06T14:16:30.104Z,38.80
2022-10-06T14:19:00.544Z,36.53
2022-10-06T14:21:36.795Z,38.53
2022-10-06T14:24:23.251Z,36.97
2022-10-06T14:26:50.547Z,35.30
2022-10-06T14:29:18.337Z,43.97
2022-10-06T14:31:45.417Z,44.72
2022-10-06T14:34:16.829Z,39.45
2022-10-06T14:36:45.616Z,39.20
2022-10-06T14:39:14.824Z,39.95
2022-10-06T14:41:41.421Z,33.88
2022-10-06T14:44:12.432Z,36.40
2022-10-06T14:46:41.404Z,40.30
2022-10-06T14:49:10.284Z,40.90
2022-10-06T14:51:38.785Z,42.47
2022-10-06T14:54:07.296Z,43.63
2022-10-06T14:56:37.646Z,45.85
2022-10-06T14:59:06.496Z,45.90
2022-10-06T15:01:34.949Z,38.45
2022-10-06T15:04:05.088Z,35.35
2022-10-06T15:06:50.548Z,37.95
2022-10-06T15:09:17.136Z,40.17
2022-10-06T15:11:43.607Z,37.90
2022-10-06T15:14:10.034Z,39.03
2022-10-06T15:16:40.598Z,37.47
2022-10-06T15:19:07.375Z,36.25
2022-10-06T15:21:34.181Z,39.45
2022-10-06T15:24:04.463Z,43.53
2022-10-06T15:26:50.177Z,39.20
2022-10-06T15:29:16.995Z,40.13
2022-10-06T15:31:45.896Z,37.65
2022-10-06T15:34:14.048Z,38.10
2022-10-06T15:36:42.414Z,39.67
2022-10-06T15:39:11.166Z,38.38
2022-10-06T15:41:39.352Z,40.95
2022-10-06T15:44:07.310Z,35.90
2022-10-06T15:46:37.107Z,39.55
2022-10-06T15:49:05.265Z,40.27
2022-10-06T15:51:36.457Z,42.13
2022-10-06T15:54:02.904Z,44.80
2022-10-06T15:56:31.716Z,41.25
2022-10-06T15:58:59.257Z,44.38
2022-10-06T16:01:28.419Z,43.22
2022-10-06T16:03:54.992Z,42.70
2022-10-06T16:06:30.195Z,50.67
2022-10-06T16:08:56.598Z,47.20
2022-10-06T16:11:23.049Z,43.38
2022-10-06T16:13:49.527Z,44.33
2022-10-06T16:16:15.980Z,48.70
2022-10-06T16:18:42.433Z,55.88
2022-10-06T16:21:08.841Z,44.65
2022-10-06T16:23:35.213Z,45.30
2022-10-06T16:26:02.234Z,50.05
2022-10-06T16:28:28.668Z,47.78
2022-10-06T16:30:55.423Z,50.63
2022-10-06T16:33:21.866Z,39.38
2022-10-06T16:35:55.880Z,48.05
2022-10-06T16:38:23.072Z,41.90
2022-10-06T16:41:03.286Z,44.55
2022-10-06T16:43:31.941Z,50.20
2022-10-06T16:46:02.301Z,41.83
2022-10-06T16:48:34.761Z,50.65
2022-10-06T16:51:34.623Z,46.33
2022-10-06T16:54:03.441Z,52.30
2022-10-06T16:56:42.050Z,53.22
2022-10-06T16:59:19.038Z,58.38
2022-10-06T17:01:46.264Z,54.30
2022-10-06T17:04:15.450Z,52.72
2022-10-06T17:06:45.194Z,59.30
2022-10-06T17:09:14.339Z,56.78
2022-10-06T17:11:48.462Z,59.50
2022-10-06T17:14:15.731Z,56.15
2022-10-06T17:16:43.934Z,56.35
2022-10-06T17:19:15.481Z,57.35
2022-10-06T17:21:48.101Z,60.20
2022-10-06T17:24:20.022Z,59.40
2022-10-06T17:26:48.478Z,56.10
2022-10-06T17:29:21.223Z,57.35
2022-10-06T17:31:49.273Z,63.00
2022-10-06T17:34:20.862Z,57.75
2022-10-06T17:36:50.850Z,55.25
2022-10-06T17:39:22.545Z,57.03
2022-10-06T17:41:51.791Z,61.90
2022-10-06T17:44:23.525Z,59.58
2022-10-06T17:46:52.815Z,68.07
2022-10-06T17:49:21.234Z,67.95
2022-10-06T17:51:49.107Z,77.50
2022-10-06T17:54:19.140Z,74.45
2022-10-06T17:56:47.896Z,74.28
2022-10-06T17:59:36.048Z,68.45
2022-10-06T18:02:03.598Z,65.82
2022-10-06T18:04:31.483Z,57.95
2022-10-06T18:06:58.091Z,73.22
2022-10-06T18:09:25.189Z,70.72
2022-10-06T18:11:56.413Z,73.93
2022-10-06T18:14:26.245Z,74.25
2022-10-06T18:16:58.386Z,73.65
2022-10-06T18:19:30.707Z,68.88
2022-10-06T18:22:12.746Z,65.88
2022-10-06T18:24:40.072Z,67.03
2022-10-06T18:27:07.824Z,63.42
2022-10-06T18:29:38.027Z,65.90
2022-10-06T18:37:38.998Z,74.55
2022-10-06T18:40:08.518Z,63.75
2022-10-06T18:42:34.997Z,67.25
2022-10-06T18:45:19.762Z,64.57
2022-10-06T18:48:04.494Z,65.30
2022-10-06T18:50:32.116Z,64.80
2022-10-06T18:52:58.518Z,64.72
2022-10-06T18:55:26.343Z,65.30
2022-10-06T18:57:52.832Z,81.07
2022-10-06T19:00:19.212Z,63.92
2022-10-06T19:02:48.433Z,66.95
2022-10-06T19:05:16.013Z,66.05
2022-10-06T19:07:43.378Z,69.32
2022-10-06T19:10:10.276Z,64.00
2022-10-06T19:12:36.670Z,78.80
2022-10-06T19:15:03.417Z,69.47
2022-10-06T19:17:29.845Z,74.72
2022-10-06T19:19:56.982Z,74.20
2022-10-06T19:22:25.013Z,72.07
2022-10-06T19:24:52.162Z,75.97
2022-10-06T19:27:23.841Z,76.15
2022-10-06T19:29:54.259Z,70.05
2022-10-06T19:32:32.130Z,73.00
2022-10-06T19:34:59.176Z,69.85
2022-10-06T19:37:28.319Z,71.80
2022-10-06T19:39:54.722Z,73.55
2022-10-06T19:42:39.768Z,76.55
2022-10-06T19:45:07.805Z,73.22
2022-10-06T19:47:34.217Z,87.15
2022-10-06T19:50:04.702Z,69.63
2022-10-06T19:52:34.149Z,70.28
2022-10-06T19:55:00.766Z,74.63
2022-10-06T19:57:29.093Z,75.57
2022-10-06T19:59:55.555Z,74.38
2022-10-06T20:02:22.263Z,70.22
2022-10-06T20:04:48.759Z,75.07
2022-10-06T20:07:15.190Z,68.55
2022-10-06T20:09:41.697Z,70.97
2022-10-06T20:12:08.117Z,66.80
2022-10-06T20:14:34.631Z,69.28
2022-10-06T20:17:02.639Z,72.82
2022-10-06T20:19:29.171Z,63.63
2022-10-06T20:21:55.631Z,62.78
2022-10-06T20:24:24.581Z,70.10
2022-10-06T20:26:52.755Z,67.72
2022-10-06T20:29:25.282Z,68.88
2022-10-06T20:31:56.282Z,65.30
2022-10-06T20:36:55.732Z,74.05
2022-10-06T20:39:42.174Z,67.90
2022-10-06T20:42:13.963Z,67.70
2022-10-06T20:44:42.215Z,69.50
2022-10-06T20:47:10.246Z,72.03
2022-10-06T20:49:37.114Z,63.33
2022-10-06T20:52:04.712Z,74.05
2022-10-06T20:54:34.712Z,62.78
2022-10-06T20:57:03.825Z,68.03
2022-10-06T20:59:31.310Z,61.92
2022-10-06T21:01:59.876Z,68.75
2022-10-06T21:04:29.907Z,67.57
2022-10-06T21:06:56.991Z,69.68
2022-10-06T21:09:24.350Z,66.82
2022-10-06T21:11:51.239Z,70.13
2022-10-06T21:14:18.164Z,69.90
2022-10-06T21:16:47.480Z,66.28
2022-10-06T21:19:16.668Z,72.22
2022-10-06T21:21:45.815Z,68.55
2022-10-06T21:24:12.266Z,71.85
2022-10-06T21:26:39.064Z,80.18
2022-10-06T21:29:05.669Z,73.00
2022-10-06T21:31:33.038Z,70.78
2022-10-06T21:34:01.189Z,69.60
2022-10-06T21:36:30.930Z,66.80
2022-10-06T21:38:59.096Z,82.40
2022-10-06T21:41:31.810Z,74.82
2022-10-06T21:44:00.154Z,79.57
2022-10-06T21:46:29.437Z,76.50
2022-10-06T21:48:57.930Z,73.32
2022-10-06T21:51:26.595Z,70.75
2022-10-06T21:53:54.223Z,77.82
2022-10-06T21:56:22.037Z,76.70
2022-10-06T21:58:52.985Z,71.65
2022-10-06T22:01:21.789Z,75.75
2022-10-06T22:03:48.785Z,77.88
2022-10-06T22:06:19.306Z,73.07
2022-10-06T22:11:19.023Z,75.82
2022-10-06T22:13:47.937Z,73.57
2022-10-06T22:16:21.486Z,75.28
2022-10-06T22:18:48.624Z,71.63
2022-10-06T22:21:21.407Z,78.00
2022-10-06T22:23:54.315Z,77.30
2022-10-06T22:26:20.806Z,70.93
2022-10-06T22:28:49.187Z,73.97
2022-10-06T22:31:17.397Z,84.20
2022-10-06T22:33:49.635Z,70.80
2022-10-06T22:36:16.042Z,79.65
2022-10-06T22:38:42.441Z,79.72
2022-10-06T22:41:11.203Z,75.38
2022-10-06T22:43:38.462Z,71.32
2022-10-06T22:46:06.644Z,68.43
2022-10-06T22:48:33.299Z,64.82
2022-10-06T22:51:00.048Z,61.20
2022-10-06T22:53:29.999Z,76.47
2022-10-06T22:55:56.834Z,71.25
2022-10-06T22:58:23.566Z,73.15
2022-10-06T23:00:50.293Z,68.00
2022-10-06T23:03:18.329Z,73.78
2022-10-06T23:05:59.323Z,73.10
2022-10-06T23:08:30.164Z,71.28
2022-10-06T23:11:11.615Z,69.57
2022-10-06T23:13:38.075Z,67.15
2022-10-06T23:16:07.986Z,75.10
2022-10-06T23:18:37.273Z,78.17
2022-10-06T23:21:18.990Z,69.00
2022-10-06T23:23:46.180Z,68.88
2022-10-06T23:26:14.619Z,62.38
2022-10-06T23:28:41.995Z,74.13
2022-10-06T23:31:10.679Z,72.90
2022-10-06T23:33:37.223Z,68.88
2022-10-06T23:36:06.547Z,73.13
2022-10-06T23:38:34.289Z,67.30
2022-10-06T23:41:00.869Z,68.07
2022-10-06T23:43:27.367Z,70.32
2022-10-06T23:45:53.951Z,63.58
2022-10-06T23:48:20.428Z,66.18
2022-10-06T23:51:01.036Z,69.07
2022-10-06T23:53:28.274Z,69.57
2022-10-06T23:55:54.798Z,63.28
2022-10-06T23:58:22.498Z,66.10
